createdAt,value
2023-04-23T00:01:43.592Z,4.62
2023-04-23T00:04:50.866Z,4.61
2023-04-23T00:07:54.127Z,4.63
2023-04-23T00:10:55.995Z,4.65
2023-04-23T00:13:57.920Z,4.63
2023-04-23T00:16:59.528Z,4.61
2023-04-23T00:20:01.121Z,4.53
2023-04-23T00:23:03.302Z,4.24
2023-04-23T00:26:04.952Z,3.99
2023-04-23T00:29:06.571Z,3.84
2023-04-23T00:32:08.467Z,3.76
2023-04-23T00:35:10.511Z,3.69
2023-04-23T00:38:12.249Z,3.61
2023-04-23T00:41:13.910Z,3.53
2023-04-23T00:44:15.618Z,3.47
2023-04-23T00:47:17.150Z,3.39
2023-04-23T00:50:18.763Z,3.32
2023-04-23T00:53:20.299Z,3.25
2023-04-23T00:56:22.892Z,3.19
2023-04-23T00:59:28.905Z,3.14
2023-04-23T01:02:31.236Z,3.10
2023-04-23T01:05:33.053Z,3.04
2023-04-23T01:08:34.579Z,3.00
2023-04-23T01:11:39.546Z,3.03
2023-04-23T01:14:41.806Z,3.07
2023-04-23T01:17:43.626Z,3.12
2023-04-23T01:20:45.295Z,3.15
2023-04-23T01:23:47.039Z,3.14
2023-04-23T01:26:48.553Z,3.17
2023-04-23T01:29:50.297Z,3.17
2023-04-23T01:32:52.113Z,3.10
2023-04-23T01:35:54.544Z,3.06
2023-04-23T01:38:56.210Z,3.00
2023-04-23T01:41:57.841Z,2.95
2023-04-23T01:44:59.597Z,2.82
2023-04-23T01:48:01.169Z,2.64
2023-04-23T01:51:02.983Z,2.52
2023-04-23T01:54:04.518Z,2.46
2023-04-23T01:57:06.187Z,2.40
2023-04-23T02:00:10.563Z,2.32
2023-04-23T02:03:12.368Z,2.27
2023-04-23T02:06:14.349Z,2.23
2023-04-23T02:09:15.816Z,2.19
2023-04-23T02:12:17.609Z,2.17
2023-04-23T02:15:19.321Z,2.16
2023-04-23T02:18:20.951Z,2.16
2023-04-23T02:21:24.777Z,2.14
2023-04-23T02:24:26.399Z,2.14
2023-04-23T02:27:28.288Z,2.16
2023-04-23T02:30:30.080Z,2.15
2023-04-23T02:33:31.721Z,2.09
2023-04-23T02:36:33.452Z,2.06
2023-04-23T02:39:34.925Z,2.05
2023-04-23T02:42:36.600Z,2.02
2023-04-23T02:45:38.262Z,1.98
2023-04-23T02:48:40.795Z,1.95
2023-04-23T02:51:42.674Z,1.93
2023-04-23T02:54:44.359Z,1.93
2023-04-23T02:57:46.539Z,1.91
2023-04-23T03:00:48.196Z,1.87
2023-04-23T03:03:50.092Z,1.85
2023-04-23T03:06:52.029Z,1.84
2023-04-23T03:09:53.876Z,1.80
2023-04-23T03:12:55.958Z,1.75
2023-04-23T03:15:57.625Z,1.68
2023-04-23T03:18:59.416Z,1.59
2023-04-23T03:22:01.025Z,1.48
2023-04-23T03:25:02.946Z,1.39
2023-04-23T03:28:04.852Z,1.38
2023-04-23T03:31:06.640Z,1.39
2023-04-23T03:34:08.352Z,1.37
2023-04-23T03:37:09.984Z,1.27
2023-04-23T03:40:11.851Z,1.14
2023-04-23T03:43:13.531Z,1.05
2023-04-23T03:46:15.293Z,1.00
2023-04-23T03:49:17.471Z,0.97
2023-04-23T03:52:19.452Z,1.01
2023-04-23T03:55:21.369Z,1.06
2023-04-23T03:58:23.057Z,1.10
2023-04-23T04:01:24.617Z,1.14
2023-04-23T04:04:26.807Z,1.19
2023-04-23T04:07:29.237Z,1.22
2023-04-23T04:10:31.098Z,1.27
2023-04-23T04:13:32.783Z,1.31
2023-04-23T04:16:34.438Z,1.35
2023-04-23T04:19:36.236Z,1.44
2023-04-23T04:22:38.144Z,1.50
2023-04-23T04:25:39.766Z,1.64
2023-04-23T04:28:41.414Z,1.78
2023-04-23T04:31:43.580Z,1.88
2023-04-23T04:34:45.500Z,2.09
2023-04-23T04:37:47.058Z,2.32
2023-04-23T04:40:48.817Z,2.54
2023-04-23T04:43:50.319Z,2.75
2023-04-23T04:46:52.151Z,2.91
2023-04-23T04:49:56.888Z,3.09
2023-04-23T04:52:58.769Z,3.31
2023-04-23T04:56:00.357Z,3.53
2023-04-23T04:59:02.478Z,3.75
2023-04-23T05:02:04.202Z,3.98
2023-04-23T05:05:06.467Z,4.20
2023-04-23T05:08:08.236Z,4.44
2023-04-23T05:11:09.881Z,4.79
2023-04-23T05:14:11.546Z,5.45
2023-04-23T05:17:13.053Z,6.12
2023-04-23T05:20:14.939Z,6.79
2023-04-23T05:23:16.613Z,7.38
2023-04-23T05:26:18.385Z,7.90
2023-04-23T05:29:20.089Z,8.33
2023-04-23T05:32:21.865Z,8.62
2023-04-23T05:35:23.556Z,8.92
2023-04-23T05:38:25.262Z,9.26
2023-04-23T05:41:27.590Z,9.59
2023-04-23T05:44:30.039Z,9.70
2023-04-23T05:47:31.720Z,9.91
2023-04-23T05:50:34.074Z,10.19
2023-04-23T05:53:35.813Z,10.46
2023-04-23T05:56:37.497Z,10.83
2023-04-23T05:59:39.897Z,11.21
2023-04-23T06:02:42.248Z,11.61
2023-04-23T06:05:44.329Z,12.15
2023-04-23T06:08:46.197Z,12.65
2023-04-23T06:11:47.999Z,13.12
2023-04-23T06:14:49.741Z,13.49
2023-04-23T06:17:51.365Z,13.72
2023-04-23T06:20:53.576Z,14.03
2023-04-23T06:23:55.215Z,14.32
2023-04-23T06:26:56.898Z,14.69
2023-04-23T06:29:58.824Z,15.17
2023-04-23T06:33:01.949Z,15.66
2023-04-23T06:36:04.829Z,16.02
2023-04-23T06:39:06.507Z,16.35
2023-04-23T06:42:08.178Z,16.59
2023-04-23T06:45:10.299Z,16.88
2023-04-23T06:48:12.007Z,17.17
2023-04-23T06:51:14.792Z,17.39
2023-04-23T06:54:16.492Z,17.70
2023-04-23T06:57:18.465Z,17.97
2023-04-23T07:00:20.328Z,18.25
2023-04-23T07:03:22.125Z,18.35
2023-04-23T07:06:23.917Z,18.72
2023-04-23T07:09:26.652Z,19.11
2023-04-23T07:12:28.248Z,19.52
2023-04-23T07:15:29.903Z,19.77
2023-04-23T07:18:32.434Z,20.19
2023-04-23T07:21:34.204Z,20.51
2023-04-23T07:24:36.049Z,20.87
2023-04-23T07:27:37.999Z,21.42
2023-04-23T07:30:39.843Z,21.89
2023-04-23T07:33:41.643Z,22.31
2023-04-23T07:36:43.315Z,22.53
2023-04-23T07:39:45.060Z,22.34
2023-04-23T07:42:47.123Z,22.68
2023-04-23T07:45:48.760Z,23.17
2023-04-23T07:48:50.502Z,23.34
2023-04-23T07:51:52.093Z,23.23
2023-04-23T07:54:53.882Z,22.95
2023-04-23T07:57:55.504Z,22.82
2023-04-23T08:00:57.320Z,22.52
2023-04-23T08:03:59.785Z,22.00
2023-04-23T08:07:01.590Z,22.19
2023-04-23T08:10:03.331Z,22.42
2023-04-23T08:13:04.994Z,22.69
2023-04-23T08:16:06.825Z,23.32
2023-04-23T08:19:08.470Z,24.11
2023-04-23T08:22:10.194Z,24.63
2023-04-23T08:25:11.947Z,25.15
2023-04-23T08:28:13.556Z,25.67
2023-04-23T08:31:25.664Z,26.05
2023-04-23T08:34:28.445Z,26.37
2023-04-23T08:37:31.555Z,26.41
2023-04-23T08:40:36.907Z,26.70
2023-04-23T08:43:44.521Z,26.80
2023-04-23T08:46:46.249Z,27.18
2023-04-23T08:49:48.823Z,27.36
2023-04-23T08:52:53.307Z,27.19
2023-04-23T08:55:56.466Z,27.12
2023-04-23T08:58:58.711Z,27.23
2023-04-23T09:02:00.551Z,27.58
2023-04-23T09:05:05.935Z,27.82
2023-04-23T09:08:07.555Z,27.96
2023-04-23T09:11:09.203Z,28.17
2023-04-23T09:14:12.803Z,28.35
2023-04-23T09:17:14.453Z,28.50
2023-04-23T09:20:16.200Z,28.81
2023-04-23T09:23:21.982Z,29.26
2023-04-23T09:26:23.630Z,29.64
2023-04-23T09:29:25.504Z,29.46
2023-04-23T09:32:34.485Z,28.98
2023-04-23T09:35:39.090Z,28.26
2023-04-23T09:38:42.478Z,28.78
2023-04-23T09:41:45.169Z,29.21
2023-04-23T09:44:56.931Z,29.62
2023-04-23T09:47:59.194Z,28.95
2023-04-23T09:51:02.228Z,28.40
2023-04-23T09:54:04.021Z,28.39
2023-04-23T09:57:06.185Z,28.25
2023-04-23T10:00:19.917Z,27.99
2023-04-23T10:03:27.635Z,27.64
2023-04-23T10:06:42.537Z,27.14
2023-04-23T10:09:51.680Z,26.85
2023-04-23T10:12:55.494Z,27.08
2023-04-23T10:16:07.155Z,27.18
2023-04-23T10:19:18.697Z,28.00
2023-04-23T10:22:22.150Z,28.34
2023-04-23T10:25:24.707Z,27.02
2023-04-23T10:28:30.452Z,25.39
2023-04-23T10:31:32.994Z,24.11
2023-04-23T10:34:34.720Z,23.54
2023-04-23T10:37:37.214Z,23.99
2023-04-23T10:40:40.467Z,24.75
2023-04-23T10:43:42.236Z,25.51
2023-04-23T10:46:55.733Z,26.10
2023-04-23T10:49:57.656Z,26.62
2023-04-23T10:52:59.326Z,26.93
2023-04-23T10:56:07.884Z,26.99
2023-04-23T10:59:19.399Z,27.00
2023-04-23T11:02:23.849Z,27.00
2023-04-23T11:05:26.764Z,26.94
2023-04-23T11:08:30.753Z,26.71
2023-04-23T11:11:40.573Z,26.23
2023-04-23T11:14:48.709Z,25.81
2023-04-23T11:17:53.430Z,26.27
2023-04-23T11:20:56.866Z,26.95
2023-04-23T11:24:02.329Z,27.15
2023-04-23T11:27:10.919Z,27.40
2023-04-23T11:30:23.050Z,27.13
2023-04-23T11:33:24.713Z,26.53
2023-04-23T11:36:27.299Z,26.19
2023-04-23T11:39:28.934Z,26.44
2023-04-23T11:42:30.527Z,26.99
2023-04-23T11:45:32.315Z,27.18
2023-04-23T11:48:35.244Z,27.32
2023-04-23T11:51:41.635Z,27.24
2023-04-23T11:54:43.271Z,27.52
2023-04-23T11:57:49.566Z,27.88
2023-04-23T12:00:57.965Z,28.18
2023-04-23T12:03:59.828Z,27.95
2023-04-23T12:07:04.317Z,26.54
2023-04-23T12:10:10.044Z,26.22
2023-04-23T12:13:21.023Z,26.32
2023-04-23T12:16:43.696Z,25.76
2023-04-23T12:19:45.578Z,25.10
2023-04-23T12:22:47.805Z,24.56
2023-04-23T12:25:49.643Z,24.30
2023-04-23T12:28:55.999Z,24.43
2023-04-23T12:32:00.723Z,24.71
2023-04-23T12:35:02.517Z,24.98
2023-04-23T12:38:07.443Z,25.41
2023-04-23T12:41:09.174Z,25.25
2023-04-23T12:44:11.235Z,25.08
2023-04-23T12:47:13.035Z,25.32
2023-04-23T12:50:14.698Z,25.74
2023-04-23T12:53:16.326Z,25.93
2023-04-23T12:56:18.016Z,26.02
2023-04-23T12:59:19.748Z,26.29
2023-04-23T13:02:21.801Z,26.54
2023-04-23T13:05:23.975Z,26.89
2023-04-23T13:08:25.589Z,27.17
2023-04-23T13:11:27.266Z,27.42
2023-04-23T13:14:29.064Z,26.94
2023-04-23T13:17:30.940Z,26.99
2023-04-23T13:20:32.684Z,27.37
2023-04-23T13:23:34.321Z,27.43
2023-04-23T13:26:35.965Z,27.41
2023-04-23T13:29:37.689Z,27.43
2023-04-23T13:32:39.449Z,27.25
2023-04-23T13:35:41.123Z,27.09
2023-04-23T13:38:43.003Z,27.12
2023-04-23T13:41:44.597Z,27.29
2023-04-23T13:44:46.182Z,27.54
2023-04-23T13:47:47.896Z,27.44
2023-04-23T13:50:49.602Z,26.71
2023-04-23T13:53:51.242Z,27.21
2023-04-23T13:56:53.269Z,27.48
2023-04-23T13:59:55.632Z,27.44
2023-04-23T14:02:57.364Z,27.54
2023-04-23T14:05:59.148Z,27.80
2023-04-23T14:09:00.889Z,27.78
2023-04-23T14:12:04.503Z,27.92
2023-04-23T14:15:10.704Z,28.03
2023-04-23T14:18:12.361Z,28.35
2023-04-23T14:21:16.317Z,28.81
2023-04-23T14:24:22.977Z,29.14
2023-04-23T14:27:24.628Z,29.74
2023-04-23T14:30:26.379Z,30.08
2023-04-23T14:33:28.113Z,30.06
2023-04-23T14:36:30.451Z,29.43
2023-04-23T14:39:34.151Z,29.10
2023-04-23T14:42:35.890Z,29.06
2023-04-23T14:45:37.489Z,29.24
2023-04-23T14:48:39.234Z,29.59
2023-04-23T14:51:40.887Z,30.11
2023-04-23T14:54:42.535Z,30.45
2023-04-23T14:57:44.219Z,31.12
2023-04-23T15:00:45.944Z,30.52
2023-04-23T15:03:47.784Z,30.92
2023-04-23T15:06:49.523Z,31.16
2023-04-23T15:09:51.380Z,30.90
2023-04-23T15:13:03.127Z,30.58
2023-04-23T15:16:09.558Z,30.24
2023-04-23T15:19:11.327Z,29.13
2023-04-23T15:22:13.039Z,28.42
2023-04-23T15:25:14.800Z,26.98
2023-04-23T15:28:16.563Z,25.86
2023-04-23T15:31:18.649Z,25.22
2023-04-23T15:34:20.404Z,25.30
2023-04-23T15:37:22.036Z,25.49
2023-04-23T15:40:23.657Z,25.46
2023-04-23T15:43:25.357Z,25.12
2023-04-23T15:46:27.453Z,25.07
2023-04-23T15:49:29.094Z,24.82
2023-04-23T15:52:31.539Z,24.42
2023-04-23T15:55:33.270Z,24.19
2023-04-23T15:58:34.930Z,24.14
2023-04-23T16:01:36.678Z,23.97
2023-04-23T16:07:40.448Z,23.23
2023-04-23T16:10:42.018Z,22.76
2023-04-23T16:13:43.725Z,22.28
2023-04-23T16:16:45.470Z,21.89
2023-04-23T16:19:47.310Z,21.61
2023-04-23T16:22:49.311Z,21.40
2023-04-23T16:25:51.025Z,21.15
2023-04-23T16:29:05.718Z,21.01
2023-04-23T16:32:14.380Z,20.84
2023-04-23T16:35:16.146Z,20.70
2023-04-23T16:38:17.772Z,20.46
2023-04-23T16:41:20.318Z,20.08
2023-04-23T16:44:21.942Z,19.84
2023-04-23T16:47:23.671Z,19.71
2023-04-23T16:50:25.376Z,19.62
2023-04-23T16:53:27.032Z,19.62
2023-04-23T16:56:29.500Z,19.61
2023-04-23T16:59:31.576Z,19.55
2023-04-23T17:02:33.317Z,19.51
2023-04-23T17:05:35.036Z,19.45
2023-04-23T17:08:37.827Z,19.32
2023-04-23T17:11:39.449Z,19.16
2023-04-23T17:14:41.304Z,19.00
2023-04-23T17:17:43.517Z,18.84
2023-04-23T17:20:45.194Z,18.59
2023-04-23T17:23:47.422Z,18.27
2023-04-23T17:26:49.162Z,18.06
2023-04-23T17:29:50.755Z,17.89
2023-04-23T17:32:52.476Z,17.73
2023-04-23T17:35:54.242Z,17.63
2023-04-23T17:38:55.830Z,17.57
2023-04-23T17:41:57.531Z,17.52
2023-04-23T17:44:59.251Z,17.52
2023-04-23T17:48:00.996Z,17.43
2023-04-23T17:51:02.816Z,17.33
2023-04-23T17:54:05.179Z,17.19
2023-04-23T17:57:06.929Z,17.00
2023-04-23T18:00:09.316Z,16.80
2023-04-23T18:03:11.308Z,16.68
2023-04-23T18:06:13.180Z,16.56
2023-04-23T18:09:14.861Z,16.36
2023-04-23T18:12:16.797Z,16.23
2023-04-23T18:15:18.557Z,16.13
2023-04-23T18:18:20.253Z,15.99
2023-04-23T18:21:22.365Z,15.64
2023-04-23T18:24:24.691Z,15.15
2023-04-23T18:27:26.307Z,14.72
2023-04-23T18:30:28.526Z,14.37
2023-04-23T18:33:42.591Z,14.12
2023-04-23T18:36:44.265Z,13.87
2023-04-23T18:39:46.030Z,13.68
2023-04-23T18:42:47.656Z,13.36
2023-04-23T18:45:49.330Z,13.16
2023-04-23T18:48:52.780Z,13.11
2023-04-23T18:51:56.045Z,13.07
2023-04-23T18:54:57.757Z,13.10
2023-04-23T18:57:59.885Z,13.15
2023-04-23T19:01:01.839Z,13.10
2023-04-23T19:04:03.658Z,13.01
2023-04-23T19:07:05.615Z,12.86
2023-04-23T19:10:08.110Z,12.73
2023-04-23T19:13:09.688Z,12.66
2023-04-23T19:16:11.432Z,12.58
2023-04-23T19:19:13.184Z,12.39
2023-04-23T19:22:14.786Z,12.30
2023-04-23T19:25:16.606Z,12.28
2023-04-23T19:28:19.384Z,12.11
2023-04-23T19:31:21.209Z,11.97
2023-04-23T19:34:22.920Z,11.89
2023-04-23T19:37:24.672Z,11.84
2023-04-23T19:40:26.346Z,11.74
2023-04-23T19:43:27.993Z,11.41
2023-04-23T19:46:29.767Z,11.19
2023-04-23T19:49:31.540Z,11.12
2023-04-23T19:52:33.492Z,10.95
2023-04-23T19:55:35.149Z,10.68
2023-04-23T19:58:37.220Z,10.60
2023-04-23T20:01:38.950Z,10.58
2023-04-23T20:04:41.170Z,10.47
2023-04-23T20:07:43.058Z,10.44
2023-04-23T20:10:45.021Z,10.51
2023-04-23T20:13:46.699Z,10.36
2023-04-23T20:16:48.386Z,10.20
2023-04-23T20:19:50.201Z,10.19
2023-04-23T20:22:51.993Z,10.23
2023-04-23T20:25:53.776Z,10.23
2023-04-23T20:28:55.933Z,10.21
2023-04-23T20:31:57.585Z,10.20
2023-04-23T20:34:59.356Z,10.20
2023-04-23T20:38:01.111Z,10.25
2023-04-23T20:41:02.908Z,10.27
2023-04-23T20:44:04.948Z,10.27
2023-04-23T20:47:06.573Z,10.30
2023-04-23T20:50:08.643Z,10.32
2023-04-23T20:53:10.316Z,10.35
2023-04-23T20:56:11.986Z,10.37
2023-04-23T20:59:13.623Z,10.35
2023-04-23T21:02:15.309Z,10.30
2023-04-23T21:05:17.219Z,10.26
2023-04-23T21:08:18.858Z,10.22
2023-04-23T21:11:20.521Z,10.22
2023-04-23T21:14:22.254Z,10.20
2023-04-23T21:17:23.987Z,10.17
2023-04-23T21:20:25.598Z,10.14
2023-04-23T21:23:27.334Z,10.08
2023-04-23T21:26:30.383Z,10.00
2023-04-23T21:29:32.391Z,9.90
2023-04-23T21:32:34.107Z,9.79
2023-04-23T21:35:35.875Z,9.67
2023-04-23T21:38:37.707Z,9.58
2023-04-23T21:41:39.412Z,9.49
2023-04-23T21:44:41.096Z,9.41
2023-04-23T21:47:42.863Z,9.35
2023-04-23T21:50:44.602Z,9.31
2023-04-23T21:53:46.341Z,9.29
2023-04-23T21:56:48.046Z,9.35
2023-04-23T21:59:50.247Z,9.33
2023-04-23T22:02:52.215Z,9.22
2023-04-23T22:05:54.836Z,9.10
2023-04-23T22:08:56.636Z,8.95
2023-04-23T22:12:02.472Z,8.85
2023-04-23T22:15:06.544Z,8.79
2023-04-23T22:18:08.237Z,8.71
2023-04-23T22:21:09.990Z,8.50
2023-04-23T22:24:11.535Z,8.49
2023-04-23T22:27:13.058Z,8.52
2023-04-23T22:30:14.978Z,8.56
2023-04-23T22:33:19.217Z,8.59
2023-04-23T22:36:20.880Z,8.51
2023-04-23T22:39:22.593Z,8.48
2023-04-23T22:42:24.159Z,8.53
2023-04-23T22:45:25.671Z,8.63
2023-04-23T22:48:27.261Z,8.69
2023-04-23T22:51:28.928Z,8.68
2023-04-23T22:54:30.560Z,8.74
2023-04-23T22:57:32.250Z,8.82
2023-04-23T23:00:33.953Z,8.97
2023-04-23T23:03:35.641Z,9.03
2023-04-23T23:06:37.390Z,8.99
2023-04-23T23:09:39.014Z,8.93
2023-04-23T23:12:40.613Z,8.94
2023-04-23T23:15:42.239Z,8.95
2023-04-23T23:18:43.979Z,9.09
2023-04-23T23:21:45.747Z,8.91
2023-04-23T23:24:47.431Z,8.58
2023-04-23T23:27:49.071Z,8.32
2023-04-23T23:30:50.843Z,8.17
2023-04-23T23:33:53.268Z,8.09
2023-04-23T23:36:54.884Z,8.10
2023-04-23T23:39:56.524Z,8.11
2023-04-23T23:42:58.175Z,8.09
2023-04-23T23:45:59.872Z,8.03
2023-04-23T23:49:01.516Z,7.96
2023-04-23T23:52:03.218Z,7.93
2023-04-23T23:55:05.380Z,7.95
2023-04-23T23:58:07.066Z,7.89
